createdAt,value
2022-08-19T00:01:55.396Z,1.95
2022-08-19T00:04:23.604Z,1.70
2022-08-19T00:06:49.975Z,1.80
2022-08-19T00:09:17.275Z,1.30
2022-08-19T00:11:45.172Z,1.30
2022-08-19T00:14:12.700Z,1.23
2022-08-19T00:16:39.712Z,1.30
2022-08-19T00:19:06.531Z,1.20
2022-08-19T00:21:37.581Z,1.38
2022-08-19T00:24:04.042Z,1.45
2022-08-19T00:26:30.402Z,1.40
2022-08-19T00:28:56.758Z,1.58
2022-08-19T00:31:23.446Z,1.52
2022-08-19T00:33:53.008Z,1.50
2022-08-19T00:36:19.508Z,1.40
2022-08-19T00:38:46.252Z,1.42
2022-08-19T00:41:18.306Z,1.52
2022-08-19T00:43:56.929Z,1.63
2022-08-19T00:46:23.474Z,1.67
2022-08-19T00:48:49.807Z,1.70
2022-08-19T00:51:16.361Z,1.80
2022-08-19T00:53:44.440Z,2.00
2022-08-19T00:56:11.420Z,2.00
2022-08-19T00:58:38.019Z,2.05
2022-08-19T01:01:05.460Z,1.60
2022-08-19T01:03:57.759Z,1.55
2022-08-19T01:06:19.781Z,1.77
2022-08-19T01:08:47.104Z,2.35
2022-08-19T01:11:17.437Z,2.08
2022-08-19T01:13:44.460Z,2.42
2022-08-19T01:16:17.242Z,2.30
2022-08-19T01:18:43.776Z,2.00
2022-08-19T01:21:16.877Z,2.00
2022-08-19T01:23:43.975Z,1.83
2022-08-19T01:26:15.486Z,1.67
2022-08-19T01:28:43.416Z,1.60
2022-08-19T01:31:27.377Z,1.88
2022-08-19T01:33:54.988Z,1.92
2022-08-19T01:36:27.274Z,1.70
2022-08-19T01:38:54.139Z,1.88
2022-08-19T01:41:20.589Z,1.60
2022-08-19T01:44:09.938Z,1.85
2022-08-19T01:46:33.551Z,1.92
2022-08-19T01:49:01.221Z,2.03
2022-08-19T01:51:27.693Z,1.83
2022-08-19T01:53:55.190Z,2.30
2022-08-19T01:56:21.633Z,2.00
2022-08-19T01:58:51.623Z,1.90
2022-08-19T02:01:18.574Z,2.47
2022-08-19T02:03:45.008Z,2.65
2022-08-19T02:06:11.390Z,2.80
2022-08-19T02:08:38.825Z,2.13
2022-08-19T02:11:06.650Z,1.80
2022-08-19T02:13:33.344Z,2.00
2022-08-19T02:15:59.700Z,2.00
2022-08-19T02:18:27.910Z,2.90
2022-08-19T02:20:54.843Z,2.65
2022-08-19T02:23:21.415Z,2.80
2022-08-19T02:25:48.863Z,2.53
2022-08-19T02:28:18.593Z,2.70
2022-08-19T02:30:47.850Z,2.97
2022-08-19T02:33:14.652Z,2.58
2022-08-19T02:35:45.250Z,2.80
2022-08-19T02:38:26.867Z,2.63
2022-08-19T02:40:56.412Z,2.90
2022-08-19T02:43:23.643Z,2.70
2022-08-19T02:45:51.028Z,2.83
2022-08-19T02:48:21.550Z,2.90
2022-08-19T02:50:53.196Z,2.95
2022-08-19T02:53:20.001Z,2.50
2022-08-19T02:55:47.019Z,2.80
2022-08-19T02:58:14.520Z,3.05
2022-08-19T03:00:46.003Z,2.90
2022-08-19T03:03:12.719Z,3.15
2022-08-19T03:05:46.998Z,3.10
2022-08-19T03:08:16.012Z,3.53
2022-08-19T03:10:45.085Z,3.22
2022-08-19T03:13:12.939Z,3.38
2022-08-19T03:15:43.544Z,3.95
2022-08-19T03:18:10.345Z,3.00
2022-08-19T03:20:44.168Z,3.08
2022-08-19T03:23:10.970Z,3.97
2022-08-19T03:25:38.469Z,3.60
2022-08-19T03:28:04.868Z,3.10
2022-08-19T03:30:31.243Z,3.55
2022-08-19T03:32:59.885Z,4.00
2022-08-19T03:35:26.615Z,4.35
2022-08-19T03:37:53.787Z,4.13
2022-08-19T03:40:20.315Z,3.70
2022-08-19T03:42:48.955Z,4.03
2022-08-19T03:45:15.868Z,3.90
2022-08-19T03:47:42.196Z,3.53
2022-08-19T03:50:09.926Z,3.70
2022-08-19T03:52:36.862Z,3.83
2022-08-19T03:55:03.875Z,3.50
2022-08-19T03:57:31.786Z,3.42
2022-08-19T04:00:12.522Z,3.60
2022-08-19T04:02:39.977Z,3.80
2022-08-19T04:05:07.454Z,4.00
2022-08-19T04:07:34.404Z,4.00
2022-08-19T04:10:01.217Z,4.15
2022-08-19T04:12:28.216Z,4.45
2022-08-19T04:14:54.673Z,3.70
2022-08-19T04:17:21.084Z,3.08
2022-08-19T04:19:47.531Z,3.35
2022-08-19T04:22:14.117Z,3.20
2022-08-19T04:24:41.399Z,3.25
2022-08-19T04:27:07.823Z,2.63
2022-08-19T04:29:34.257Z,2.50
2022-08-19T04:32:09.026Z,2.30
2022-08-19T04:34:36.135Z,3.10
2022-08-19T04:37:22.521Z,2.78
2022-08-19T04:40:07.533Z,2.67
2022-08-19T04:42:40.139Z,2.92
2022-08-19T04:45:12.327Z,3.30
2022-08-19T04:47:48.253Z,3.40
2022-08-19T04:50:26.439Z,4.05
2022-08-19T04:52:53.420Z,3.58
2022-08-19T04:55:19.968Z,3.85
2022-08-19T04:57:46.317Z,3.92
2022-08-19T05:00:12.976Z,3.50
2022-08-19T05:02:39.710Z,2.90
2022-08-19T05:05:07.305Z,3.45
2022-08-19T05:07:33.658Z,2.97
2022-08-19T05:10:00.109Z,2.90
2022-08-19T05:12:29.157Z,3.25
2022-08-19T05:14:57.629Z,3.13
2022-08-19T05:17:29.045Z,3.35
2022-08-19T05:20:16.271Z,3.53
2022-08-19T05:22:44.072Z,4.43
2022-08-19T05:25:13.916Z,4.15
2022-08-19T05:27:41.700Z,4.05
2022-08-19T05:30:08.453Z,3.97
2022-08-19T05:32:34.920Z,4.20
2022-08-19T05:35:01.498Z,6.28
2022-08-19T05:37:28.375Z,7.35
2022-08-19T05:39:55.688Z,9.82
2022-08-19T05:42:23.737Z,9.70
2022-08-19T05:44:50.654Z,9.93
2022-08-19T05:47:17.943Z,11.55
2022-08-19T05:49:44.460Z,12.27
2022-08-19T05:52:13.479Z,13.57
2022-08-19T05:54:42.444Z,16.40
2022-08-19T05:57:09.308Z,16.85
2022-08-19T05:59:39.249Z,17.65
2022-08-19T06:02:07.560Z,16.73
2022-08-19T06:04:34.504Z,17.48
2022-08-19T06:07:02.417Z,17.80
2022-08-19T06:09:39.264Z,20.50
2022-08-19T06:12:05.894Z,19.25
2022-08-19T06:14:33.990Z,19.05
2022-08-19T06:17:06.660Z,20.52
2022-08-19T06:19:33.534Z,21.58
2022-08-19T06:22:00.587Z,24.85
2022-08-19T06:24:28.285Z,25.50
2022-08-19T06:26:59.256Z,27.83
2022-08-19T06:29:28.369Z,27.23
2022-08-19T06:31:57.125Z,27.27
2022-08-19T06:34:24.110Z,30.27
2022-08-19T06:36:52.847Z,30.77
2022-08-19T06:39:22.019Z,31.65
2022-08-19T06:41:52.451Z,33.55
2022-08-19T06:44:22.020Z,32.78
2022-08-19T06:46:54.934Z,33.80
2022-08-19T06:49:21.761Z,34.72
2022-08-19T06:51:49.546Z,35.75
2022-08-19T06:54:19.279Z,38.05
2022-08-19T06:56:46.722Z,37.10
2022-08-19T06:59:18.684Z,39.63
2022-08-19T07:01:49.464Z,38.78
2022-08-19T07:06:44.747Z,37.60
2022-08-19T07:09:12.943Z,41.72
2022-08-19T07:11:39.780Z,40.65
2022-08-19T07:14:07.004Z,40.88
2022-08-19T07:16:46.698Z,42.42
2022-08-19T07:19:15.994Z,41.45
2022-08-19T07:21:43.747Z,39.10
2022-08-19T07:24:10.471Z,38.92
2022-08-19T07:26:42.198Z,39.47
2022-08-19T07:29:09.340Z,38.83
2022-08-19T07:31:38.434Z,39.72
2022-08-19T07:34:07.604Z,39.85
2022-08-19T07:36:34.840Z,38.58
2022-08-19T07:39:02.677Z,40.47
2022-08-19T07:41:29.700Z,40.90
2022-08-19T07:43:56.385Z,41.00
2022-08-19T07:46:22.807Z,40.70
2022-08-19T07:48:51.215Z,39.55
2022-08-19T07:51:29.509Z,38.75
2022-08-19T07:54:04.310Z,38.85
2022-08-19T07:56:30.734Z,39.35
2022-08-19T08:01:29.230Z,39.08
2022-08-19T08:04:15.326Z,40.72
2022-08-19T08:07:00.566Z,40.72
2022-08-19T08:09:39.523Z,40.08
2022-08-19T08:12:33.205Z,39.80
2022-08-19T08:14:56.690Z,41.00
2022-08-19T08:17:31.183Z,40.10
2022-08-19T08:20:12.628Z,40.60
2022-08-19T08:23:02.410Z,38.90
2022-08-19T08:25:29.068Z,38.60
2022-08-19T08:28:01.329Z,38.45
2022-08-19T08:30:34.120Z,37.90
2022-08-19T08:33:00.817Z,37.92
2022-08-19T08:35:29.124Z,35.58
2022-08-19T08:37:56.737Z,35.50
2022-08-19T08:40:43.089Z,33.85
2022-08-19T08:43:11.306Z,35.20
2022-08-19T08:45:42.854Z,34.42
2022-08-19T08:48:22.298Z,33.08
2022-08-19T08:50:53.287Z,33.75
2022-08-19T08:53:29.643Z,33.72
2022-08-19T08:56:01.260Z,31.25
2022-08-19T08:58:42.854Z,31.45
2022-08-19T09:01:12.761Z,32.42
2022-08-19T09:03:41.070Z,31.88
2022-08-19T09:06:28.060Z,31.48
2022-08-19T09:09:12.084Z,31.52
2022-08-19T09:11:42.385Z,29.95
2022-08-19T09:14:40.674Z,32.35
2022-08-19T09:17:04.388Z,31.38
2022-08-19T09:19:31.042Z,32.53
2022-08-19T09:22:01.570Z,29.67
2022-08-19T09:24:31.030Z,28.92
2022-08-19T09:26:57.725Z,28.57
2022-08-19T09:29:24.112Z,29.15
2022-08-19T09:31:50.936Z,28.50
2022-08-19T09:34:21.480Z,27.27
2022-08-19T09:36:50.432Z,27.50
2022-08-19T09:39:17.805Z,25.02
2022-08-19T09:41:47.615Z,27.40
2022-08-19T09:44:15.654Z,26.20
2022-08-19T09:46:42.056Z,25.95
2022-08-19T09:49:08.547Z,25.80
2022-08-19T09:51:35.191Z,21.92
2022-08-19T09:54:04.910Z,21.70
2022-08-19T09:56:32.272Z,22.08
2022-08-19T09:58:59.407Z,21.55
2022-08-19T10:01:27.742Z,20.13
2022-08-19T10:03:55.566Z,22.55
2022-08-19T10:06:46.091Z,20.88
2022-08-19T10:09:11.651Z,20.20
2022-08-19T10:11:46.898Z,21.95
2022-08-19T10:14:23.157Z,22.50
2022-08-19T10:16:50.396Z,22.55
2022-08-19T10:19:25.413Z,20.98
2022-08-19T10:21:55.861Z,21.75
2022-08-19T10:24:28.615Z,20.80
2022-08-19T10:26:59.605Z,22.45
2022-08-19T10:29:32.134Z,21.65
2022-08-19T10:32:02.512Z,21.70
2022-08-19T10:34:30.358Z,21.13
2022-08-19T10:37:00.917Z,21.05
2022-08-19T10:39:30.737Z,20.60
2022-08-19T10:41:57.836Z,21.23
2022-08-19T10:44:24.920Z,21.08
2022-08-19T10:46:59.796Z,22.50
2022-08-19T10:49:26.536Z,20.88
2022-08-19T10:52:13.142Z,19.83
2022-08-19T10:55:05.395Z,21.15
2022-08-19T11:00:23.763Z,19.15
2022-08-19T11:02:50.336Z,20.13
2022-08-19T11:05:18.007Z,20.33
2022-08-19T11:07:45.590Z,18.95
2022-08-19T11:10:17.134Z,21.35
2022-08-19T11:12:47.452Z,20.27
2022-08-19T11:15:13.887Z,19.73
2022-08-19T11:17:44.451Z,19.83
2022-08-19T11:20:12.997Z,19.48
2022-08-19T11:22:41.870Z,19.63
2022-08-19T11:25:09.813Z,21.00
2022-08-19T11:27:38.705Z,21.15
2022-08-19T11:30:05.461Z,20.85
2022-08-19T11:32:35.328Z,21.70
2022-08-19T11:35:01.910Z,21.23
2022-08-19T11:37:28.404Z,21.98
2022-08-19T11:39:55.098Z,20.63
2022-08-19T11:42:40.405Z,21.30
2022-08-19T11:45:07.392Z,21.92
2022-08-19T11:47:34.002Z,19.98
2022-08-19T11:50:00.479Z,22.08
2022-08-19T11:52:27.565Z,19.70
2022-08-19T11:54:54.089Z,22.52
2022-08-19T11:57:20.954Z,23.13
2022-08-19T11:59:51.787Z,24.73
2022-08-19T12:02:18.387Z,29.45
2022-08-19T12:04:44.749Z,33.42
2022-08-19T12:07:11.333Z,34.47
2022-08-19T12:09:42.655Z,36.10
2022-08-19T12:12:10.219Z,36.63
2022-08-19T12:14:41.028Z,37.50
2022-08-19T12:17:09.876Z,39.15
2022-08-19T12:19:40.291Z,28.95
2022-08-19T12:22:10.981Z,29.77
2022-08-19T12:24:37.402Z,34.08
2022-08-19T12:27:03.835Z,31.77
2022-08-19T12:29:31.135Z,30.75
2022-08-19T12:32:02.284Z,30.48
2022-08-19T12:34:31.072Z,22.33
2022-08-19T12:37:02.503Z,22.75
2022-08-19T12:39:28.898Z,24.20
2022-08-19T12:42:00.641Z,26.13
2022-08-19T12:44:31.827Z,25.20
2022-08-19T12:46:59.876Z,24.67
2022-08-19T12:49:52.642Z,26.63
2022-08-19T12:52:23.227Z,22.08
2022-08-19T12:54:54.141Z,23.38
2022-08-19T12:57:22.196Z,24.70
2022-08-19T12:59:54.005Z,24.95
2022-08-19T13:02:20.814Z,24.80
2022-08-19T13:04:47.534Z,25.98
2022-08-19T13:07:14.175Z,21.33
2022-08-19T13:09:43.416Z,18.92
2022-08-19T13:12:13.853Z,19.90
2022-08-19T13:17:07.834Z,15.68
2022-08-19T13:19:37.388Z,15.95
2022-08-19T13:22:04.883Z,14.32
2022-08-19T13:24:41.968Z,13.70
2022-08-19T13:27:11.786Z,12.65
2022-08-19T13:29:56.999Z,12.38
2022-08-19T13:32:42.062Z,11.90
2022-08-19T13:35:08.871Z,9.80
2022-08-19T13:37:44.520Z,12.40
2022-08-19T13:40:19.162Z,11.70
2022-08-19T13:42:47.315Z,12.10
2022-08-19T13:45:15.843Z,11.60
2022-08-19T13:47:45.310Z,13.48
2022-08-19T13:50:12.973Z,11.53
2022-08-19T13:52:39.815Z,12.18
2022-08-19T13:55:07.378Z,12.55
2022-08-19T13:57:34.121Z,14.60
2022-08-19T14:00:00.591Z,11.15
2022-08-19T14:02:27.426Z,10.48
2022-08-19T14:04:54.091Z,9.52
2022-08-19T14:07:20.472Z,8.57
2022-08-19T14:09:46.779Z,9.30
2022-08-19T14:12:28.710Z,8.98
2022-08-19T14:14:55.809Z,8.65
2022-08-19T14:17:22.444Z,8.40
2022-08-19T14:19:48.994Z,8.43
2022-08-19T14:22:15.515Z,8.02
2022-08-19T14:24:48.876Z,8.00
2022-08-19T14:27:15.663Z,8.52
2022-08-19T14:29:42.168Z,7.15
2022-08-19T14:32:11.530Z,7.28
2022-08-19T14:34:43.243Z,5.88
2022-08-19T14:37:14.457Z,7.30
2022-08-19T14:39:43.139Z,8.10
2022-08-19T14:42:11.375Z,7.53
2022-08-19T14:44:38.425Z,7.85
2022-08-19T14:47:05.050Z,7.60
2022-08-19T14:49:34.923Z,7.20
2022-08-19T14:52:05.863Z,6.53
2022-08-19T14:54:32.777Z,6.07
2022-08-19T14:56:59.161Z,6.15
2022-08-19T14:59:25.541Z,5.20
2022-08-19T15:01:52.197Z,5.20
2022-08-19T15:04:18.732Z,5.22
2022-08-19T15:06:45.163Z,4.40
2022-08-19T15:09:11.570Z,4.15
2022-08-19T15:11:39.311Z,4.30
2022-08-19T15:14:10.879Z,3.80
2022-08-19T15:16:40.375Z,4.00
2022-08-19T15:19:07.002Z,3.85
2022-08-19T15:21:33.694Z,3.70
2022-08-19T15:24:01.317Z,3.22
2022-08-19T15:26:33.041Z,2.80
2022-08-19T15:29:00.302Z,2.75
2022-08-19T15:31:32.836Z,2.47
2022-08-19T15:33:59.317Z,2.80
2022-08-19T15:36:26.934Z,3.00
2022-08-19T15:38:53.478Z,2.83
2022-08-19T15:41:24.812Z,2.55
2022-08-19T15:43:52.551Z,2.85
2022-08-19T15:46:19.792Z,2.70
2022-08-19T15:48:55.835Z,2.90
2022-08-19T15:51:24.523Z,2.58
2022-08-19T15:53:51.008Z,2.70
2022-08-19T15:56:17.402Z,2.72
2022-08-19T15:59:02.462Z,3.20
2022-08-19T16:01:47.603Z,3.22
2022-08-19T16:04:34.843Z,3.65
2022-08-19T16:07:02.103Z,4.18
2022-08-19T16:09:29.775Z,4.05
2022-08-19T16:12:01.779Z,4.97
2022-08-19T16:14:29.432Z,4.97
2022-08-19T16:16:56.762Z,4.55
2022-08-19T16:19:23.587Z,4.65
2022-08-19T16:21:52.829Z,4.82
2022-08-19T16:24:21.068Z,5.55
2022-08-19T16:26:48.278Z,5.25
2022-08-19T16:29:15.650Z,5.63
2022-08-19T16:32:10.576Z,5.45
2022-08-19T16:34:38.187Z,6.20
2022-08-19T16:37:04.691Z,5.57
2022-08-19T16:39:31.064Z,6.00
2022-08-19T16:41:58.007Z,5.55
2022-08-19T16:44:24.662Z,5.82
2022-08-19T16:46:58.502Z,6.00
2022-08-19T16:49:53.528Z,5.72
2022-08-19T16:52:13.096Z,6.90
2022-08-19T16:54:41.544Z,6.63
2022-08-19T16:57:11.713Z,7.20
2022-08-19T16:59:44.167Z,7.25
2022-08-19T17:02:18.013Z,6.97
2022-08-19T17:04:44.602Z,7.25
2022-08-19T17:07:24.264Z,7.13
2022-08-19T17:09:50.776Z,6.63
2022-08-19T17:12:19.339Z,6.65
2022-08-19T17:14:46.040Z,7.35
2022-08-19T17:17:12.814Z,6.78
2022-08-19T17:19:41.696Z,6.15
2022-08-19T17:22:09.204Z,6.07
2022-08-19T17:24:38.116Z,5.67
2022-08-19T17:27:07.255Z,5.72
2022-08-19T17:29:34.127Z,5.80
2022-08-19T17:32:01.618Z,5.53
2022-08-19T17:34:28.204Z,5.47
2022-08-19T17:36:56.655Z,5.55
2022-08-19T17:39:23.072Z,6.30
2022-08-19T17:41:53.278Z,5.93
2022-08-19T17:44:19.731Z,5.88
2022-08-19T17:46:46.716Z,5.55
2022-08-19T17:49:13.215Z,6.13
2022-08-19T17:51:42.536Z,5.70
2022-08-19T17:54:13.882Z,5.80
2022-08-19T17:56:41.642Z,6.00
2022-08-19T17:59:13.694Z,4.65
2022-08-19T18:01:53.213Z,4.55
2022-08-19T18:04:21.289Z,4.45
2022-08-19T18:06:53.004Z,3.55
2022-08-19T18:09:24.921Z,3.72
2022-08-19T18:11:52.950Z,3.38
2022-08-19T18:14:20.426Z,3.72
2022-08-19T18:16:46.826Z,3.40
2022-08-19T18:19:13.224Z,3.40
2022-08-19T18:21:41.636Z,3.03
2022-08-19T18:24:08.218Z,3.13
2022-08-19T18:26:34.812Z,2.83
2022-08-19T18:29:02.257Z,2.58
2022-08-19T18:31:30.027Z,2.80
2022-08-19T18:33:56.694Z,2.60
2022-08-19T18:36:50.009Z,2.50
2022-08-19T18:39:29.456Z,2.20
2022-08-19T18:42:14.779Z,2.22
2022-08-19T18:45:00.371Z,2.45
2022-08-19T18:47:59.069Z,2.35
2022-08-19T18:50:25.488Z,2.42
2022-08-19T18:52:52.047Z,2.50
2022-08-19T18:55:18.799Z,2.30
2022-08-19T18:57:45.567Z,2.50
2022-08-19T19:00:12.876Z,2.50
2022-08-19T19:02:39.782Z,2.72
2022-08-19T19:05:07.659Z,2.70
2022-08-19T19:07:34.637Z,2.40
2022-08-19T19:10:01.038Z,2.60
2022-08-19T19:12:30.309Z,2.60
2022-08-19T19:14:58.497Z,2.90
2022-08-19T19:17:28.201Z,2.63
2022-08-19T19:19:54.695Z,3.30
2022-08-19T19:22:22.364Z,3.17
2022-08-19T19:24:49.089Z,3.17
2022-08-19T19:27:18.422Z,3.70
2022-08-19T19:29:49.629Z,3.60
2022-08-19T19:32:22.646Z,3.17
2022-08-19T19:34:49.036Z,4.25
2022-08-19T19:37:16.843Z,3.80
2022-08-19T19:39:45.950Z,3.53
2022-08-19T19:42:20.675Z,3.33
2022-08-19T19:44:48.853Z,7.03
2022-08-19T19:47:18.403Z,5.65
2022-08-19T19:50:10.744Z,3.97
2022-08-19T19:52:31.872Z,3.70
2022-08-19T19:54:58.466Z,4.30
2022-08-19T19:57:26.589Z,4.22
2022-08-19T19:59:54.114Z,5.15
2022-08-19T20:02:21.809Z,6.47
2022-08-19T20:04:48.776Z,4.80
2022-08-19T20:07:15.407Z,4.60
2022-08-19T20:09:59.178Z,5.22
2022-08-19T20:12:26.515Z,5.20
2022-08-19T20:14:52.897Z,5.20
2022-08-19T20:17:20.557Z,5.30
2022-08-19T20:19:47.924Z,5.03
2022-08-19T20:22:14.481Z,5.00
2022-08-19T20:24:42.451Z,5.40
2022-08-19T20:27:10.730Z,6.07
2022-08-19T20:29:41.370Z,6.10
2022-08-19T20:32:10.920Z,6.25
2022-08-19T20:34:37.904Z,6.60
2022-08-19T20:37:04.627Z,6.88
2022-08-19T20:39:31.045Z,6.90
2022-08-19T20:41:57.476Z,7.18
2022-08-19T20:44:25.242Z,6.35
2022-08-19T20:46:54.600Z,6.78
2022-08-19T20:49:21.260Z,6.50
2022-08-19T20:51:48.993Z,6.40
2022-08-19T20:54:15.391Z,6.18
2022-08-19T20:56:41.707Z,6.40
2022-08-19T20:59:10.445Z,7.38
2022-08-19T21:01:37.386Z,7.20
2022-08-19T21:04:03.870Z,7.00
2022-08-19T21:06:30.977Z,6.90
2022-08-19T21:08:58.571Z,6.95
2022-08-19T21:11:25.430Z,6.85
2022-08-19T21:13:51.765Z,6.97
2022-08-19T21:16:18.203Z,6.72
2022-08-19T21:18:44.543Z,6.43
2022-08-19T21:21:12.024Z,6.40
2022-08-19T21:23:38.377Z,6.93
2022-08-19T21:26:05.929Z,7.35
2022-08-19T21:28:35.634Z,6.63
2022-08-19T21:33:32.005Z,7.55
2022-08-19T21:35:58.747Z,8.10
2022-08-19T21:38:25.246Z,8.70
2022-08-19T21:40:51.742Z,9.10
2022-08-19T21:43:18.187Z,7.80
2022-08-19T21:45:45.532Z,7.25
2022-08-19T21:48:12.500Z,6.78
2022-08-19T21:50:38.911Z,6.93
2022-08-19T21:53:05.247Z,7.18
2022-08-19T21:55:31.605Z,6.97
2022-08-19T21:58:01.692Z,7.68
2022-08-19T22:00:30.266Z,7.93
2022-08-19T22:02:58.716Z,8.50
2022-08-19T22:05:25.632Z,7.63
2022-08-19T22:07:52.836Z,7.35
2022-08-19T22:10:19.611Z,6.78
2022-08-19T22:12:51.277Z,6.47
2022-08-19T22:15:18.821Z,6.63
2022-08-19T22:17:45.244Z,6.82
2022-08-19T22:20:13.629Z,6.65
2022-08-19T22:22:45.603Z,7.07
2022-08-19T22:25:13.420Z,7.63
2022-08-19T22:27:57.477Z,7.97
2022-08-19T22:30:27.608Z,8.68
2022-08-19T22:33:01.576Z,10.30
2022-08-19T22:35:31.218Z,9.05
2022-08-19T22:37:58.912Z,9.10
2022-08-19T22:40:26.098Z,8.77
2022-08-19T22:43:05.123Z,9.90
2022-08-19T22:45:31.960Z,10.63
2022-08-19T22:47:58.335Z,10.02
2022-08-19T22:50:25.979Z,9.57
2022-08-19T22:52:59.460Z,10.90
2022-08-19T22:55:26.729Z,10.75
2022-08-19T22:57:53.398Z,9.88
2022-08-19T23:00:21.047Z,9.13
2022-08-19T23:02:52.371Z,8.20
2022-08-19T23:05:20.856Z,8.43
2022-08-19T23:07:52.235Z,8.88
2022-08-19T23:12:54.688Z,7.97
2022-08-19T23:15:25.871Z,9.15
2022-08-19T23:17:53.161Z,8.82
2022-08-19T23:20:20.489Z,8.25
2022-08-19T23:22:52.456Z,8.30
2022-08-19T23:25:20.254Z,8.43
2022-08-19T23:28:05.306Z,7.82
2022-08-19T23:30:33.495Z,9.10
2022-08-19T23:33:01.172Z,8.77
2022-08-19T23:35:32.667Z,8.77
2022-08-19T23:38:00.955Z,9.30
2022-08-19T23:40:28.600Z,9.40
2022-08-19T23:42:55.023Z,9.32
2022-08-19T23:45:23.860Z,9.05
2022-08-19T23:47:51.421Z,8.90
2022-08-19T23:50:20.402Z,8.32
2022-08-19T23:52:48.585Z,8.55
2022-08-19T23:55:15.647Z,8.48
2022-08-19T23:57:41.979Z,8.07
